Time;durP1;ratioP1;P1;durP2;ratioP2;P2;SDS_P1;SDS_P2;PMS_P1;PMS_P2;Temp;Humidity;BMP_temperature;BMP_pressure;BME280_temperature;BME280_humidity;BME280_pressure;Samples;Min_cycle;Max_cycle;Signal;HPM_P1;HPM_P2
2023/01/07 00:01:08;;;;;;;;;3.33;3.33;;;;;13.69;61.20;101709.09;1962303;28;3463777;-83
2023/01/07 00:02:18;;;;;;;;;3.33;3.33;;;;;13.67;61.13;101702.97;1985914;28;2754743;-83
2023/01/07 00:03:29;;;;;;;;;4.00;2.33;;;;;13.67;61.25;101696.84;2009733;28;2750310;-83
2023/01/07 00:04:43;;;;;;;;;2.00;2.00;;;;;13.67;61.38;101697.69;1988617;28;2745057;-83
2023/01/07 00:06:05;;;;;;;;;3.00;3.00;;;;;13.66;61.46;101693.31;1980307;28;2736706;-83
2023/01/07 00:07:19;;;;;;;;;3.83;2.17;;;;;13.67;61.31;101691.53;2011960;28;2734613;-83
2023/01/07 00:08:34;;;;;;;;;3.00;2.83;;;;;13.66;61.29;101690.69;2012320;28;2740971;-83
2023/01/07 00:09:47;;;;;;;;;2.33;2.33;;;;;13.68;61.31;101693.28;1997506;28;2726320;-83
2023/01/07 00:11:02;;;;;;;;;3.00;3.00;;;;;13.68;61.51;101685.38;1987414;28;2748717;-83
2023/01/07 00:12:15;;;;;;;;;2.50;2.50;;;;;13.69;61.44;101685.31;1988611;28;2747122;-83
2023/01/07 00:13:29;;;;;;;;;5.00;3.00;;;;;13.69;61.87;101680.03;1987275;28;2742985;-83
2023/01/07 00:14:42;;;;;;;;;2.17;2.17;;;;;13.69;61.30;101687.06;1989867;28;2733623;-83
2023/01/07 00:16:00;;;;;;;;;2.17;1.00;;;;;13.69;61.45;101677.38;1989409;28;2739857;-83
2023/01/07 00:17:13;;;;;;;;;5.67;3.67;;;;;13.69;61.09;101687.94;2011697;28;2739888;-83
2023/01/07 00:18:26;;;;;;;;;2.17;2.17;;;;;13.69;61.32;101676.50;1987642;28;2741937;-83
2023/01/07 00:19:39;;;;;;;;;5.83;3.67;;;;;13.69;61.08;101677.38;1995876;28;2753381;-83
2023/01/07 00:20:57;;;;;;;;;1.83;1.83;;;;;13.70;61.26;101676.44;1987885;28;2735707;-83
2023/01/07 00:22:10;;;;;;;;;4.50;3.17;;;;;13.69;60.92;101669.44;2011813;28;2742959;-83
2023/01/07 00:23:24;;;;;;;;;2.33;2.33;;;;;13.70;61.26;101667.69;1983203;28;2745069;-83
2023/01/07 00:24:37;;;;;;;;;2.33;2.00;;;;;13.69;60.90;101668.59;1988637;28;2746087;-83
2023/01/07 00:25:48;;;;;;;;;3.00;3.00;;;;;13.69;61.32;101666.81;1967531;28;2741956;-83
2023/01/07 00:26:59;;;;;;;;;2.67;2.67;;;;;13.69;60.84;101660.66;2009008;28;2740222;-83
2023/01/07 00:28:12;;;;;;;;;2.50;2.50;;;;;13.68;61.23;101657.16;1989189;28;2748218;-83
2023/01/07 00:29:25;;;;;;;;;4.83;3.00;;;;;13.69;61.18;101655.38;1985339;28;2740918;-83
2023/01/07 00:30:39;;;;;;;;;2.17;2.00;;;;;13.69;61.02;101650.09;1988201;28;2748592;-84
2023/01/07 00:31:52;;;;;;;;;2.67;2.50;;;;;13.68;61.00;101648.38;1989171;28;2739869;-83
2023/01/07 00:33:06;;;;;;;;;3.00;1.83;;;;;13.68;60.88;101638.66;1983901;28;2745045;-83
2023/01/07 00:34:22;;;;;;;;;3.00;3.00;;;;;13.68;61.00;101640.47;1996132;28;2739840;-83
2023/01/07 00:35:35;;;;;;;;;2.33;2.33;;;;;13.67;61.02;101636.94;1995604;28;2741968;-83
2023/01/07 00:36:49;;;;;;;;;4.33;2.67;;;;;13.67;61.16;101639.59;2014212;28;2736752;-82
2023/01/07 00:38:03;;;;;;;;;3.33;2.17;;;;;13.67;60.74;101630.78;1990129;28;2737790;-83
2023/01/07 00:39:19;;;;;;;;;2.50;2.50;;;;;13.66;60.65;101629.03;1984106;28;2728382;-83
2023/01/07 00:40:33;;;;;;;;;1.00;1.00;;;;;13.64;60.81;101626.47;1983974;28;2722146;-83
2023/01/07 00:43:16;;;;;;;;;4.00;2.00;;;;;13.63;60.52;101627.38;1965028;28;2754438;-83
2023/01/07 00:44:28;;;;;;;;;2.00;2.00;;;;;13.64;60.71;101620.31;2008511;28;2734051;-83
2023/01/07 00:45:42;;;;;;;;;3.00;3.00;;;;;13.64;61.04;101617.66;1997815;28;2731604;-84
2023/01/07 00:46:56;;;;;;;;;3.00;2.67;;;;;13.64;60.50;101621.19;2001593;28;2737754;-83
2023/01/07 00:48:10;;;;;;;;;2.17;2.17;;;;;13.64;60.69;101615.03;1982393;28;2751764;-83
2023/01/07 00:49:23;;;;;;;;;2.83;2.83;;;;;13.61;60.82;101614.22;2005657;28;2745062;-83
2023/01/07 00:50:38;;;;;;;;;2.67;1.83;;;;;13.61;60.98;101611.56;1990179;28;2737837;-83
2023/01/07 00:51:51;;;;;;;;;3.17;2.83;;;;;13.62;60.76;101612.44;2019815;28;2735670;-83
2023/01/07 00:53:02;;;;;;;;;2.00;2.00;;;;;13.62;61.01;101604.53;1957683;28;2752376;-83
2023/01/07 00:54:16;;;;;;;;;2.00;2.00;;;;;13.63;60.83;101597.47;2013708;28;2734633;-83
2023/01/07 00:55:29;;;;;;;;;3.17;2.00;;;;;13.62;60.47;101607.16;1996590;28;2736796;-83
2023/01/07 00:56:42;;;;;;;;;2.17;2.17;;;;;13.63;60.77;101605.41;1990760;28;2744052;-83
2023/01/07 00:57:56;;;;;;;;;2.17;2.00;;;;;13.61;60.86;101601.00;2012625;28;2751339;-83
2023/01/07 00:59:09;;;;;;;;;3.67;3.00;;;;;13.62;60.84;101599.25;1991218;28;2732553;-83
2023/01/07 01:00:21;;;;;;;;;5.67;3.00;;;;;13.64;60.81;101593.91;1963698;28;2752369;-83
2023/01/07 01:01:34;;;;;;;;;2.00;2.00;;;;;13.65;60.75;101595.63;2018206;28;2751310;-83
2023/01/07 01:02:46;;;;;;;;;2.67;2.67;;;;;13.65;60.43;101590.34;1970819;28;2753413;-83
2023/01/07 01:03:59;;;;;;;;;3.00;3.00;;;;;13.64;60.78;101584.19;2013393;28;2729433;-83
2023/01/07 01:05:13;;;;;;;;;3.50;3.50;;;;;13.64;60.70;101588.59;2012515;28;2737114;-83
2023/01/07 01:06:26;;;;;;;;;0.00;0.00;;;;;13.64;60.74;101583.31;1990539;28;2731563;-83
2023/01/07 01:07:39;;;;;;;;;3.33;2.17;;;;;13.64;60.79;101580.69;1981491;28;2746106;-83
2023/01/07 01:08:49;;;;;;;;;4.00;2.00;;;;;13.63;60.49;101579.81;1956968;28;2754436;-83
2023/01/07 01:10:01;;;;;;;;;1.67;1.67;;;;;13.63;60.77;101574.53;2004077;28;2746122;-83
2023/01/07 01:11:15;;;;;;;;;2.50;2.50;;;;;13.63;60.94;101576.34;1983792;28;2746110;-83
2023/01/07 01:12:29;;;;;;;;;2.00;2.00;;;;;13.63;60.91;101571.06;1990890;28;2735659;-83
2023/01/07 01:13:44;;;;;;;;;1.33;1.00;;;;;13.64;60.62;101576.28;2013134;28;2735682;-83
2023/01/07 01:14:57;;;;;;;;;4.83;3.17;;;;;13.64;60.76;101572.75;2008882;28;2746100;-83
2023/01/07 01:16:16;;;;;;;;;1.00;1.00;;;;;13.63;61.03;101569.25;1989932;28;2735687;-83
2023/01/07 01:17:29;;;;;;;;;3.00;3.00;;;;;13.63;60.91;101569.25;2010393;28;2750280;-83
2023/01/07 01:18:44;;;;;;;;;2.33;1.67;;;;;13.63;60.72;101566.59;1983000;28;2728475;-83
2023/01/07 01:19:57;;;;;;;;;2.33;2.00;;;;;13.64;60.69;101567.47;1981952;28;2750261;-83
2023/01/07 01:21:13;;;;;;;;;2.00;2.00;;;;;13.64;60.19;101556.91;1990437;28;2741925;-83
2023/01/07 01:22:27;;;;;;;;;1.67;1.67;;;;;13.63;60.31;101566.59;1995915;28;2741947;-83
2023/01/07 01:23:38;;;;;;;;;2.67;2.67;;;;;13.62;60.63;101559.63;1971335;28;2754435;-83
2023/01/07 01:24:51;;;;;;;;;2.67;2.67;;;;;13.61;60.50;101558.75;2019592;28;2746095;-83
2023/01/07 01:26:13;;;;;;;;;2.00;2.00;;;;;13.62;60.62;101554.34;1997840;28;2743057;-83
2023/01/07 01:27:29;;;;;;;;;2.83;2.33;;;;;13.63;60.42;101565.78;1996318;28;2728383;-83
2023/01/07 01:28:43;;;;;;;;;2.17;2.17;;;;;13.62;60.42;101554.34;1989447;28;2749235;-83
2023/01/07 01:29:58;;;;;;;;;3.17;3.17;;;;;13.61;60.48;101553.47;1990444;28;2741359;-83
2023/01/07 01:31:11;;;;;;;;;2.33;2.00;;;;;13.60;60.62;101554.41;1988934;28;2737746;-83
2023/01/07 01:32:25;;;;;;;;;2.67;2.17;;;;;13.60;60.53;101546.47;1998377;28;2738835;-83
2023/01/07 01:33:38;;;;;;;;;3.83;2.33;;;;;13.61;60.49;101552.59;2019189;28;2744016;-83
2023/01/07 01:34:51;;;;;;;;;2.00;2.00;;;;;13.60;60.42;101549.13;1990768;28;2729460;-83
2023/01/07 01:36:07;;;;;;;;;2.50;1.83;;;;;13.61;60.65;101549.94;1990945;28;2741963;-83
2023/01/07 01:37:20;;;;;;;;;3.50;2.00;;;;;13.61;61.09;101550.81;1990078;28;2744071;-83
2023/01/07 01:38:33;;;;;;;;;2.17;2.17;;;;;13.61;60.73;101547.31;1989972;28;2747172;-83
2023/01/07 01:39:46;;;;;;;;;2.00;1.00;;;;;13.61;60.57;101542.91;1989449;28;2727381;-83
2023/01/07 01:40:59;;;;;;;;;6.33;3.50;;;;;13.63;60.64;101545.47;2012467;28;2744021;-83
2023/01/07 01:42:15;;;;;;;;;1.50;1.50;;;;;13.62;60.48;101546.41;1990889;28;2736721;-83
2023/01/07 01:43:40;;;;;;;;;2.50;2.50;;;;;13.61;60.90;101545.53;1990674;28;2734633;-83
2023/01/07 01:44:56;;;;;;;;;3.50;2.50;;;;;13.61;60.57;101545.53;1990113;28;2746103;-83
2023/01/07 01:46:16;;;;;;;;;2.83;2.83;;;;;13.61;60.25;101545.53;1991988;28;2742988;-82
2023/01/07 01:47:35;;;;;;;;;1.67;1.67;;;;;13.62;60.53;101546.41;1996143;28;2731500;-83
2023/01/07 01:49:02;;;;;;;;;1.33;1.33;;;;;13.61;60.32;101542.03;1991095;28;2731528;-83
2023/01/07 01:50:23;;;;;;;;;2.00;2.00;;;;;13.60;60.69;101545.59;1983738;28;2733616;-83
2023/01/07 01:51:40;;;;;;;;;4.67;2.83;;;;;13.60;60.64;101540.31;1986274;28;2746122;-83
2023/01/07 01:53:06;;;;;;;;;2.33;2.33;;;;;13.59;60.62;101536.81;1962729;28;2754913;-83
2023/01/07 01:54:20;;;;;;;;;4.00;3.00;;;;;13.59;60.66;101539.44;2005915;28;2741948;-83
2023/01/07 01:55:40;;;;;;;;;4.83;3.50;;;;;13.59;60.88;101539.44;1983548;28;2740898;-83
2023/01/07 01:56:58;;;;;;;;;2.83;2.17;;;;;13.60;61.19;101535.03;1983612;28;2738800;-83
2023/01/07 01:58:27;;;;;;;;;2.83;2.00;;;;;13.59;61.03;101528.88;1989641;28;2730939;-83
2023/01/07 01:59:44;;;;;;;;;3.33;2.67;;;;;13.60;60.83;101524.47;1989996;28;2738824;-83
2023/01/07 02:00:57;;;;;;;;;3.00;2.67;;;;;13.58;60.92;101528.94;1988170;28;2737829;-83
2023/01/07 02:02:15;;;;;;;;;2.00;2.00;;;;;13.59;60.72;101530.66;2013196;28;2741940;-83
2023/01/07 02:03:32;;;;;;;;;2.33;2.33;;;;;13.58;61.06;101523.66;1997030;28;2746094;-84
2023/01/07 02:04:45;;;;;;;;;2.83;2.83;;;;;13.58;61.09;101523.66;1991826;28;2739865;-83
2023/01/07 02:05:59;;;;;;;;;5.17;2.17;;;;;13.57;61.09;101525.44;1981748;28;2745068;-83
2023/01/07 02:07:16;;;;;;;;;2.00;2.00;;;;;13.57;61.26;101519.28;1984980;28;2746602;-83
2023/01/07 02:08:30;;;;;;;;;3.00;2.50;;;;;13.57;61.30;101516.63;1989733;28;2753391;-83
2023/01/07 02:09:44;;;;;;;;;2.67;1.83;;;;;13.57;61.41;101520.16;1990831;28;2739876;-83
2023/01/07 02:11:24;;;;;;;;;3.17;3.17;;;;;13.58;61.32;101521.03;1989398;28;2751363;-83
2023/01/07 02:13:03;;;;;;;;;2.00;1.83;;;;;13.58;61.29;101521.03;1989915;28;2744083;-83
2023/01/07 02:14:35;;;;;;;;;1.33;1.33;;;;;13.57;61.57;101520.16;1991140;28;2726383;-83
2023/01/07 02:16:01;;;;;;;;;3.17;2.00;;;;;13.56;61.65;101512.22;1989195;28;2751303;-83
2023/01/07 02:17:29;;;;;;;;;2.00;2.00;;;;;13.56;61.45;101514.88;1988172;28;2741949;-83
2023/01/07 02:19:12;;;;;;;;;2.00;2.00;;;;;13.56;61.64;101510.50;2019883;28;2738817;-83
2023/01/07 02:20:28;;;;;;;;;3.33;3.33;;;;;13.56;61.44;101504.31;1979361;28;2741960;-83
2023/01/07 02:22:00;;;;;;;;;2.50;2.50;;;;;13.57;61.68;101514.00;1985914;28;2730476;-83
2023/01/07 02:23:41;;;;;;;;;2.67;2.33;;;;;13.55;61.74;101507.88;1985622;28;2737762;-83
2023/01/07 02:25:15;;;;;;;;;2.00;0.33;;;;;13.55;61.54;101505.22;2013328;28;2731577;-83
2023/01/07 02:27:02;;;;;;;;;4.33;3.00;;;;;13.55;61.57;101507.88;2012489;28;2739853;-83
2023/01/07 02:29:06;;;;;;;;;3.17;2.00;;;;;13.54;62.01;101500.84;2013687;28;2742982;-83
2023/01/07 02:30:37;;;;;;;;;2.00;2.00;;;;;13.52;61.79;101503.56;1989005;28;2747200;-82
2023/01/07 02:32:32;;;;;;;;;2.50;2.50;;;;;13.52;61.65;101500.91;1995596;28;2735675;-83
2023/01/07 02:34:28;;;;;;;;;3.17;2.33;;;;;13.52;62.08;101500.91;1984305;28;2735711;-83
2023/01/07 02:35:48;;;;;;;;;3.67;2.67;;;;;13.52;61.75;101487.72;1989126;28;2746606;-83
2023/01/07 02:37:06;;;;;;;;;2.33;2.00;;;;;13.52;61.93;101494.75;1990221;28;2729437;-83
2023/01/07 02:38:41;;;;;;;;;2.33;2.33;;;;;13.52;61.82;101497.41;1996860;28;2750257;-83
2023/01/07 02:40:15;;;;;;;;;5.17;2.33;;;;;13.52;61.98;101500.03;1993572;28;2735699;-83
2023/01/07 02:41:55;;;;;;;;;2.67;2.00;;;;;13.50;61.64;101493.06;1989309;28;2748198;-83
2023/01/07 02:43:38;;;;;;;;;3.50;2.67;;;;;13.50;61.67;101495.69;1986602;28;2746099;-83
2023/01/07 02:45:15;;;;;;;;;2.00;2.00;;;;;13.50;61.95;101486.91;1988305;28;2723687;-83
2023/01/07 02:46:57;;;;;;;;;2.00;2.00;;;;;13.49;61.68;101491.31;2011610;28;2741935;-83
2023/01/07 02:48:13;;;;;;;;;2.83;2.83;;;;;13.48;61.60;101484.28;1989279;28;2741936;-83
2023/01/07 02:49:27;;;;;;;;;3.00;2.50;;;;;13.48;61.70;101481.66;1989656;28;2747160;-83
2023/01/07 02:50:37;;;;;;;;;5.00;2.33;;;;;13.48;61.47;101472.91;1963747;28;2752348;-83
2023/01/07 02:51:50;;;;;;;;;1.00;1.00;;;;;13.47;61.28;101466.75;2012688;28;2723186;-83
2023/01/07 02:53:01;;;;;;;;;2.00;2.00;;;;;13.47;61.73;101472.03;1991779;28;2754472;-83
2023/01/07 02:54:18;;;;;;;;;3.00;2.00;;;;;13.48;61.09;101473.72;2002848;28;2753401;-83
2023/01/07 02:55:41;;;;;;;;;1.67;1.67;;;;;13.48;61.83;101464.97;2016688;28;2739913;-83
2023/01/07 02:57:15;;;;;;;;;3.83;2.00;;;;;13.47;61.53;101460.59;1987631;28;2751327;-83
2023/01/07 02:58:56;;;;;;;;;2.00;2.00;;;;;13.47;61.46;101458.81;1982129;28;2741929;-82
2023/01/07 03:00:27;;;;;;;;;1.50;1.50;;;;;13.47;61.40;101461.47;1993396;28;2746079;-83
2023/01/07 03:02:04;;;;;;;;;2.00;2.00;;;;;13.46;61.16;101454.44;2014370;28;2750265;-83
2023/01/07 03:03:17;;;;;;;;;1.67;1.67;;;;;13.45;61.03;101455.38;1988569;28;2747161;-83
2023/01/07 03:05:09;;;;;;;;;1.50;1.00;;;;;13.45;61.45;101452.72;1989293;28;2721092;-82
2023/01/07 03:06:44;;;;;;;;;2.33;1.17;;;;;13.46;60.99;101448.28;2011353;28;2741936;-83
2023/01/07 03:08:26;;;;;;;;;1.33;1.17;;;;;13.45;61.12;101441.31;2020637;28;2733642;-83
2023/01/07 03:10:04;;;;;;;;;1.00;1.00;;;;;13.44;60.96;101445.72;1989522;28;2732573;-83
2023/01/07 03:11:22;;;;;;;;;2.00;1.00;;;;;13.44;60.98;101442.19;1990660;28;2725282;-82
2023/01/07 03:12:44;;;;;;;;;1.83;1.00;;;;;13.44;60.70;101436.91;2006075;28;2722169;-82
2023/01/07 03:14:18;;;;;;;;;2.00;1.00;;;;;13.44;60.57;101440.44;2013329;28;2727342;-82
2023/01/07 03:15:44;;;;;;;;;2.00;1.00;;;;;13.43;60.67;101438.72;2008827;28;2729905;-83
2023/01/07 03:17:03;;;;;;;;;1.33;1.33;;;;;13.43;60.93;101433.44;2008633;28;2744058;-83
2023/01/07 03:18:25;;;;;;;;;0.50;0.50;;;;;13.42;60.85;101425.56;2014582;28;2722146;-82
2023/01/07 03:19:44;;;;;;;;;1.17;1.00;;;;;13.44;60.51;101423.72;2018671;28;2726331;-82
2023/01/07 03:21:07;;;;;;;;;3.67;1.33;;;;;13.43;60.58;101422.00;2012689;28;2739904;-83
2023/01/07 03:22:23;;;;;;;;;3.33;1.50;;;;;13.42;60.71;101421.13;1989914;28;2738836;-83
2023/01/07 03:23:41;;;;;;;;;2.00;1.50;;;;;13.43;60.33;101422.00;1985087;28;2728407;-82
2023/01/07 03:24:56;;;;;;;;;2.83;2.00;;;;;13.43;60.53;101422.00;1986745;28;2744023;-82
2023/01/07 03:26:12;;;;;;;;;1.33;1.33;;;;;13.43;60.60;101414.09;1990754;28;2724224;-82
2023/01/07 03:27:29;;;;;;;;;1.50;1.50;;;;;13.44;60.59;101415.78;1990855;28;2729928;-83
2023/01/07 03:28:44;;;;;;;;;2.17;2.17;;;;;13.43;60.52;101409.69;1989381;28;2740344;-83
2023/01/07 03:30:01;;;;;;;;;2.00;2.00;;;;;13.44;60.33;101410.50;1989293;28;2750289;-82
2023/01/07 03:31:14;;;;;;;;;1.00;1.00;;;;;13.43;60.69;101417.59;1989712;28;2727353;-82
2023/01/07 03:32:47;;;;;;;;;1.00;0.50;;;;;13.44;60.54;101411.38;2011565;28;2733623;-82
2023/01/07 03:34:06;;;;;;;;;1.00;1.00;;;;;13.45;60.67;101404.34;2012255;28;2724226;-83
2023/01/07 03:35:22;;;;;;;;;1.83;1.83;;;;;13.44;60.75;101400.81;2019153;28;2733600;-82
2023/01/07 03:36:43;;;;;;;;;1.00;1.00;;;;;13.45;60.54;101404.34;1990214;28;2722150;-83
2023/01/07 03:37:55;;;;;;;;;2.67;2.33;;;;;13.44;60.63;101403.47;1979216;28;2754504;-83
2023/01/07 03:39:11;;;;;;;;;1.00;1.00;;;;;13.43;61.12;101399.13;2005579;28;2725282;-83
2023/01/07 03:40:24;;;;;;;;;1.33;1.33;;;;;13.45;60.57;101399.06;2010280;28;2733596;-83
2023/01/07 03:43:16;;;;;;;;;1.00;1.00;;;;;13.43;60.97;101391.19;2009649;28;2727354;-82
2023/01/07 03:44:30;;;;;;;;;5.50;2.50;;;;;13.44;60.80;101397.31;2009037;28;2745452;-83
2023/01/07 03:45:44;;;;;;;;;1.17;1.17;;;;;13.43;60.70;101398.25;1989903;28;2729501;-83
2023/01/07 03:46:57;;;;;;;;;1.83;1.83;;;;;13.43;60.54;101396.47;1981884;28;2733636;-83
2023/01/07 03:48:10;;;;;;;;;2.00;2.00;;;;;13.44;60.91;101386.75;1982098;28;2729436;-83
2023/01/07 03:49:23;;;;;;;;;2.00;2.00;;;;;13.44;60.80;101392.03;1990048;28;2733607;-83
2023/01/07 03:50:36;;;;;;;;;3.00;2.00;;;;;13.44;60.58;101392.91;1990196;28;2736732;-83
2023/01/07 03:51:51;;;;;;;;;3.00;1.00;;;;;13.43;60.74;101378.00;1986978;28;2717983;-83
2023/01/07 03:53:05;;;;;;;;;2.83;2.00;;;;;13.44;60.55;101381.47;2005660;28;2751302;-83
2023/01/07 03:54:18;;;;;;;;;1.00;1.00;;;;;13.43;60.62;101375.34;1989230;28;2720093;-83
2023/01/07 03:55:31;;;;;;;;;1.00;1.00;;;;;13.43;60.55;101387.69;2013776;28;2725274;-83
2023/01/07 03:56:44;;;;;;;;;2.00;1.50;;;;;13.43;60.60;101380.63;2013076;28;2729428;-83
2023/01/07 03:57:58;;;;;;;;;1.00;1.00;;;;;13.41;60.51;101374.50;1990512;28;2731571;-84
2023/01/07 03:59:11;;;;;;;;;1.00;1.00;;;;;13.41;60.11;101374.50;1997486;28;2720059;-83
2023/01/07 04:00:24;;;;;;;;;1.00;1.00;;;;;13.41;60.66;101373.69;2020657;28;2730463;-83
2023/01/07 04:01:37;;;;;;;;;1.17;1.17;;;;;13.41;60.47;101369.22;2018739;28;2734171;-83
2023/01/07 04:02:51;;;;;;;;;1.33;1.33;;;;;13.41;60.83;101366.59;1989795;28;2724237;-83
2023/01/07 04:04:04;;;;;;;;;3.17;1.17;;;;;13.40;60.51;101364.88;1990355;28;2711722;-83
2023/01/07 04:05:17;;;;;;;;;1.83;1.67;;;;;13.41;60.68;101360.47;2020806;28;2729460;-83
2023/01/07 04:06:31;;;;;;;;;2.17;2.17;;;;;13.40;60.13;101359.59;1994604;28;2750257;-83
2023/01/07 04:07:44;;;;;;;;;1.67;1.50;;;;;13.41;60.61;101355.19;1988855;28;2737784;-83
2023/01/07 04:08:58;;;;;;;;;2.00;2.00;;;;;13.40;60.72;101354.31;1988244;28;2754463;-83
2023/01/07 04:10:11;;;;;;;;;2.00;2.00;;;;;13.40;60.43;101356.97;1990490;28;2735682;-83
2023/01/07 04:11:21;;;;;;;;;5.00;2.00;;;;;13.39;60.06;101350.81;1964548;28;2754421;-83
2023/01/07 04:12:32;;;;;;;;;3.00;1.67;;;;;13.41;60.43;101344.63;2005316;28;2742024;-83
2023/01/07 04:13:46;;;;;;;;;1.83;1.83;;;;;13.39;60.13;101336.75;1983403;28;2735699;-83
2023/01/07 04:14:59;;;;;;;;;2.17;1.67;;;;;13.41;60.34;101336.72;1983317;28;2737786;-83
2023/01/07 04:16:12;;;;;;;;;1.33;1.33;;;;;13.39;60.28;101337.63;2005731;28;2741925;-83
2023/01/07 04:17:25;;;;;;;;;3.33;2.33;;;;;13.38;59.93;101335.03;2013683;28;2736756;-83
2023/01/07 04:18:39;;;;;;;;;2.33;1.50;;;;;13.39;60.19;101331.47;1991165;28;2750274;-83
2023/01/07 04:19:52;;;;;;;;;1.00;1.00;;;;;13.37;60.09;101333.31;1999257;28;2725278;-83
2023/01/07 04:21:05;;;;;;;;;2.33;1.50;;;;;13.38;60.20;101337.69;2020551;28;2724240;-83
2023/01/07 04:22:18;;;;;;;;;1.00;1.00;;;;;13.36;60.29;101328.94;1998536;28;2725298;-83
2023/01/07 04:23:32;;;;;;;;;1.83;1.00;;;;;13.37;60.25;101328.03;2017787;28;2733592;-83
2023/01/07 04:24:45;;;;;;;;;1.50;1.50;;;;;13.37;60.11;101328.03;1987388;28;2728399;-83
2023/01/07 04:25:59;;;;;;;;;1.00;1.00;;;;;13.37;60.33;101322.75;1990511;28;2737766;-83
2023/01/07 04:27:12;;;;;;;;;1.83;1.83;;;;;13.36;60.05;101319.22;2012969;28;2748234;-83
2023/01/07 04:28:25;;;;;;;;;2.33;2.33;;;;;13.35;60.09;101314.88;1990461;28;2747174;-83
2023/01/07 04:29:38;;;;;;;;;2.17;2.17;;;;;13.36;60.34;101308.66;1991748;28;2735703;-82
2023/01/07 04:30:52;;;;;;;;;2.50;2.50;;;;;13.35;59.87;101309.59;1989381;28;2753396;-83
2023/01/07 04:32:05;;;;;;;;;3.17;2.50;;;;;13.34;60.06;101304.34;1989730;28;2748170;-83
2023/01/07 04:33:18;;;;;;;;;2.00;2.00;;;;;13.33;60.43;101300.88;1981622;28;2746138;-83
2023/01/07 04:34:31;;;;;;;;;1.00;1.00;;;;;13.33;60.17;101297.38;1984175;28;2713816;-83
2023/01/07 04:35:45;;;;;;;;;1.50;1.50;;;;;13.32;60.32;101299.16;1990239;28;2731992;-83
2023/01/07 04:36:59;;;;;;;;;1.33;1.33;;;;;13.31;60.18;101296.56;2006830;28;2725291;-82
2023/01/07 04:38:12;;;;;;;;;2.33;2.17;;;;;13.28;60.25;101289.63;1990672;28;2747168;-83
2023/01/07 04:39:25;;;;;;;;;3.00;3.00;;;;;13.26;60.57;101289.66;1996926;28;2754536;-83
2023/01/07 04:40:38;;;;;;;;;3.00;2.67;;;;;13.25;60.41;101287.94;2013158;28;2743017;-83
2023/01/07 04:41:52;;;;;;;;;2.00;2.00;;;;;13.22;60.01;101285.41;2007326;28;2739841;-83
2023/01/07 04:43:05;;;;;;;;;1.17;1.17;;;;;13.21;60.00;101283.69;1983420;28;2727358;-83
2023/01/07 04:44:18;;;;;;;;;2.83;2.83;;;;;13.17;60.32;101279.44;1983568;28;2743000;-83
2023/01/07 04:45:31;;;;;;;;;2.00;2.00;;;;;13.14;60.21;101274.25;2014238;28;2741934;-82
2023/01/07 04:46:44;;;;;;;;;4.83;2.83;;;;;13.12;60.27;101274.31;1987632;28;2731520;-83
2023/01/07 04:47:58;;;;;;;;;3.00;3.00;;;;;13.10;60.73;101275.28;1991248;28;2748194;-83
2023/01/07 04:49:11;;;;;;;;;3.50;2.00;;;;;13.06;60.18;101269.28;2019018;28;2747145;-83
2023/01/07 04:50:24;;;;;;;;;2.67;2.50;;;;;13.04;60.58;101266.66;1997290;28;2744024;-83
2023/01/07 04:51:37;;;;;;;;;2.83;2.83;;;;;13.02;60.61;101262.34;1994041;28;2749291;-83
2023/01/07 04:52:51;;;;;;;;;3.17;2.17;;;;;12.99;60.53;101268.59;1989840;28;2748192;-83
2023/01/07 04:54:04;;;;;;;;;3.33;3.00;;;;;12.96;60.42;101260.81;1989737;28;2738863;-83
2023/01/07 04:55:17;;;;;;;;;3.00;3.00;;;;;12.94;61.03;101257.34;1989571;28;2744047;-83
2023/01/07 04:56:30;;;;;;;;;3.50;3.00;;;;;12.90;60.92;101245.19;2021970;28;2733600;-83
2023/01/07 04:57:44;;;;;;;;;3.00;3.00;;;;;12.89;60.92;101254.03;1996186;28;2742970;-83
2023/01/07 04:58:57;;;;;;;;;0.83;0.83;;;;;12.85;60.71;101253.25;1997806;28;2725290;-82
2023/01/07 05:00:11;;;;;;;;;3.00;3.00;;;;;12.82;60.98;101246.31;2013383;28;2738831;-83
2023/01/07 05:01:24;;;;;;;;;3.00;3.00;;;;;12.79;61.02;101243.75;2012944;28;2746098;-83
2023/01/07 05:02:37;;;;;;;;;3.00;3.00;;;;;12.76;61.05;101243.91;1988442;28;2730499;-83
2023/01/07 05:03:50;;;;;;;;;2.00;2.00;;;;;12.74;60.92;101244.84;1989431;28;2747149;-83
2023/01/07 05:05:04;;;;;;;;;6.50;3.83;;;;;12.72;61.18;101244.88;1989273;28;2752345;-83
2023/01/07 05:06:17;;;;;;;;;3.33;3.00;;;;;12.69;61.75;101242.38;1990579;28;2726315;-83
2023/01/07 05:07:31;;;;;;;;;3.83;2.50;;;;;12.67;61.21;101241.53;1990898;28;2736779;-83
2023/01/07 05:08:44;;;;;;;;;2.67;2.67;;;;;12.66;61.27;101237.19;2013367;28;2752344;-83
2023/01/07 05:09:57;;;;;;;;;5.50;3.17;;;;;12.64;61.58;101233.75;1989378;28;2747629;-83
2023/01/07 05:11:10;;;;;;;;;4.50;2.50;;;;;12.63;61.43;101229.38;1990435;28;2748183;-83
2023/01/07 05:12:24;;;;;;;;;4.00;4.00;;;;;12.62;61.64;101228.50;1994833;28;2746114;-83
2023/01/07 05:13:37;;;;;;;;;3.33;3.33;;;;;12.59;61.76;101224.19;1989394;28;2743002;-83
2023/01/07 05:14:50;;;;;;;;;4.00;4.00;;;;;12.58;61.59;101230.41;1987184;28;2744019;-83
2023/01/07 05:16:04;;;;;;;;;6.00;4.00;;;;;12.56;62.02;101221.69;1989964;28;2752380;-83
2023/01/07 05:17:17;;;;;;;;;3.67;3.17;;;;;12.53;61.71;101220.91;1989603;28;2735752;-83
2023/01/07 05:18:30;;;;;;;;;3.67;3.00;;;;;12.51;61.62;101215.72;1982201;28;2741941;-83
2023/01/07 05:19:43;;;;;;;;;3.50;2.33;;;;;12.48;61.65;101214.03;1984939;28;2748663;-83
2023/01/07 05:20:56;;;;;;;;;3.17;3.17;;;;;12.47;61.87;101214.09;2011821;28;2744023;-83
2023/01/07 05:22:10;;;;;;;;;4.33;3.67;;;;;12.44;61.87;101214.19;1997021;28;2754825;-83
2023/01/07 05:23:23;;;;;;;;;3.00;3.00;;;;;12.41;62.18;101207.25;1996886;28;2738796;-83
2023/01/07 05:24:36;;;;;;;;;3.33;2.67;;;;;12.40;62.29;101207.28;1989579;28;2748701;-83
2023/01/07 05:25:49;;;;;;;;;2.67;2.00;;;;;12.37;62.34;101206.47;2012566;28;2732593;-82
2023/01/07 05:27:03;;;;;;;;;5.33;2.33;;;;;12.35;62.68;101203.03;2005514;28;2744027;-82
2023/01/07 05:28:16;;;;;;;;;3.17;3.00;;;;;12.34;62.49;101208.38;2011215;28;2746808;-83
2023/01/07 05:29:26;;;;;;;;;4.00;4.00;;;;;12.34;62.83;101211.00;1957680;28;2752871;-83
2023/01/07 05:30:38;;;;;;;;;3.50;3.00;;;;;12.32;62.49;101207.56;2010552;28;2744019;-83
2023/01/07 05:31:51;;;;;;;;;3.50;3.50;;;;;12.31;62.55;101201.41;2012504;28;2751332;-83
2023/01/07 05:33:05;;;;;;;;;4.33;3.00;;;;;12.30;62.41;101204.94;1962891;28;2754568;-83
2023/01/07 05:34:19;;;;;;;;;3.67;3.67;;;;;12.26;62.48;101201.56;2011465;28;2745080;-83
2023/01/07 05:35:29;;;;;;;;;4.33;3.33;;;;;12.26;62.64;101205.97;1964575;28;2746131;-83
2023/01/07 05:36:40;;;;;;;;;6.33;6.33;;;;;12.24;62.70;101202.53;2012178;28;2743313;-83
2023/01/07 05:37:53;;;;;;;;;6.67;3.17;;;;;12.23;62.77;101203.44;1985486;28;2750261;-83
2023/01/07 05:39:07;;;;;;;;;4.83;4.83;;;;;12.21;63.10;101202.63;1989106;28;2737802;-82
2023/01/07 05:40:20;;;;;;;;;4.00;3.50;;;;;12.20;62.93;101198.28;1989287;28;2748267;-83
2023/01/07 05:41:33;;;;;;;;;6.50;4.67;;;;;12.19;62.96;101191.28;1989635;28;2748571;-82
2023/01/07 05:42:46;;;;;;;;;6.83;4.00;;;;;12.19;63.04;101191.28;1989585;28;2744085;-83
2023/01/07 05:43:59;;;;;;;;;4.83;4.00;;;;;12.19;62.87;101186.00;1989423;28;2744053;-83
2023/01/07 05:45:13;;;;;;;;;4.33;4.33;;;;;12.17;63.00;101182.56;1989848;28;2739837;-83
2023/01/07 05:46:26;;;;;;;;;7.50;4.50;;;;;12.18;63.09;101189.53;1982211;28;2740926;-83
2023/01/07 05:47:39;;;;;;;;;6.67;3.67;;;;;12.15;63.09;101180.81;1988648;28;2746124;-83
2023/01/07 05:48:53;;;;;;;;;4.83;4.83;;;;;12.14;62.96;101184.38;1985604;28;2727342;-83
2023/01/07 05:50:06;;;;;;;;;2.33;2.33;;;;;12.13;62.99;101185.28;2011866;28;2735675;-82
2023/01/07 05:51:19;;;;;;;;;1.17;1.00;;;;;12.13;63.06;101190.56;2010625;28;2742005;-83
2023/01/07 05:52:33;;;;;;;;;2.00;2.00;;;;;12.12;63.10;101190.59;2013219;28;2739856;-82
2023/01/07 05:53:46;;;;;;;;;6.17;6.17;;;;;12.11;63.03;101191.47;1997066;28;2742978;-82